Time;durP1;ratioP1;P1;durP2;ratioP2;P2;SDS_P1;SDS_P2;PMS_P1;PMS_P2;Temp;Humidity;BMP_temperature;BMP_pressure;BME280_temperature;BME280_humidity;BME280_pressure;Samples;Min_cycle;Max_cycle;Signal;HPM_P1;HPM_P2
2021/08/06 00:00:30;;;;;;;6.78;6.18;;;;;;;19.54;67.69;99929.00;5020954;28;20548;-51
2021/08/06 00:02:56;;;;;;;6.20;5.70;;;;;;;19.53;67.75;99926.41;5017403;28;20034;-51
2021/08/06 00:05:21;;;;;;;7.30;6.70;;;;;;;19.54;67.70;99934.34;5000248;28;20533;-50
2021/08/06 00:07:46;;;;;;;6.97;5.53;;;;;;;19.53;67.87;99927.28;5013564;28;20634;-51
2021/08/06 00:10:12;;;;;;;6.88;6.25;;;;;;;19.53;67.74;99927.28;5020254;28;20018;-50
2021/08/06 00:12:37;;;;;;;7.30;6.60;;;;;;;19.52;67.46;99922.91;5011970;28;20036;-50
2021/08/06 00:15:04;;;;;;;6.22;5.65;;;;;;;19.51;67.79;99923.88;5013671;28;20022;-51
2021/08/06 00:17:30;;;;;;;7.13;6.43;;;;;;;19.51;67.80;99917.66;5010523;28;20033;-51
2021/08/06 00:19:55;;;;;;;6.70;6.10;;;;;;;19.51;67.77;99931.88;5021695;28;20057;-51
2021/08/06 00:22:20;;;;;;;7.72;7.03;;;;;;;19.53;67.53;99924.63;5012665;28;20025;-50
2021/08/06 00:24:46;;;;;;;7.47;6.78;;;;;;;19.51;67.53;99917.66;5014579;28;20102;-50
2021/08/06 00:27:11;;;;;;;7.68;6.97;;;;;;;19.50;67.74;99916.78;5021793;28;20025;-51
2021/08/06 00:29:36;;;;;;;8.27;7.50;;;;;;;19.50;67.30;99916.78;5019922;28;20026;-51
2021/08/06 00:32:02;;;;;;;9.52;8.23;;;;;;;19.48;67.80;99914.19;5021131;28;20034;-50
2021/08/06 00:34:27;;;;;;;8.38;7.57;;;;;;;19.49;67.86;99915.06;5017887;28;20022;-48
2021/08/06 00:36:52;;;;;;;8.40;7.60;;;;;;;19.48;67.58;99914.19;5016019;28;20034;-51
2021/08/06 00:39:18;;;;;;;7.68;6.93;;;;;;;19.48;67.56;99908.00;5016205;28;20030;-50
2021/08/06 00:41:43;;;;;;;10.50;8.38;;;;;;;19.49;67.59;99904.38;5014789;28;20102;-50
2021/08/06 00:44:08;;;;;;;7.85;7.18;;;;;;;19.48;67.76;99902.66;5024949;28;20464;-51
2021/08/06 00:46:34;;;;;;;9.55;7.35;;;;;;;19.48;67.89;99898.13;5016270;28;20041;-51
2021/08/06 00:49:00;;;;;;;7.85;7.15;;;;;;;19.47;67.82;99900.91;5014700;28;20025;-50
2021/08/06 00:51:25;;;;;;;8.05;7.35;;;;;;;19.43;67.73;99889.53;5019256;28;20037;-50
2021/08/06 00:53:51;;;;;;;9.45;8.45;;;;;;;19.43;67.84;99894.91;5000245;28;20453;-51
2021/08/06 00:56:18;;;;;;;8.70;7.85;;;;;;;19.43;67.91;99894.91;5020715;28;20056;-51
2021/08/06 00:58:44;;;;;;;8.88;8.07;;;;;;;19.43;67.68;99899.38;5020557;28;20029;-51
2021/08/06 01:01:09;;;;;;;9.23;8.32;;;;;;;19.41;67.87;99896.78;5021282;28;20751;-51
2021/08/06 01:03:54;;;;;;;9.40;8.52;;;;;;;19.43;68.03;99899.38;5012806;28;20425;-47
2021/08/06 01:06:45;;;;;;;9.30;8.30;;;;;;;19.40;68.02;99896.91;4997949;28;20079;-48
2021/08/06 01:09:38;;;;;;;9.23;8.32;;;;;;;19.41;67.67;99895.94;5015491;28;20033;-49
2021/08/06 01:12:06;;;;;;;9.40;8.40;;;;;;;19.41;67.73;99896.78;5014899;28;20401;-49
2021/08/06 01:14:35;;;;;;;9.93;8.82;;;;;;;19.39;67.78;99895.16;5016193;28;20183;-48
2021/08/06 01:17:01;;;;;;;9.25;8.35;;;;;;;19.40;67.71;99899.56;5011635;28;20025;-49
2021/08/06 01:20:01;;;;;;;10.43;9.38;;;;;;;19.39;67.95;99889.81;5001043;28;20024;-48
2021/08/06 01:23:08;;;;;;;8.67;7.87;;;;;;;19.38;68.06;99885.41;4997995;28;20034;-49
2021/08/06 01:25:50;;;;;;;8.55;7.75;;;;;;;19.38;67.95;99891.63;4996496;28;20478;-49
2021/08/06 01:28:22;;;;;;;9.60;8.70;;;;;;;19.36;67.86;99883.72;5015543;28;20667;-48
2021/08/06 01:30:48;;;;;;;9.18;8.00;;;;;;;19.36;67.83;99889.06;4996799;28;20043;-48
2021/08/06 01:33:18;;;;;;;8.80;8.00;;;;;;;19.38;67.78;99885.41;5016277;28;20455;-48
2021/08/06 01:35:43;;;;;;;8.32;7.45;;;;;;;19.36;67.97;99883.72;5011514;28;20449;-47
2021/08/06 01:38:10;;;;;;;9.30;8.40;;;;;;;19.35;67.98;99876.63;5014062;28;20493;-48
2021/08/06 01:40:52;;;;;;;8.73;7.93;;;;;;;19.35;67.98;99873.94;5014902;28;20017;-48
2021/08/06 01:43:38;;;;;;;8.35;7.55;;;;;;;19.33;68.40;99877.66;5015694;28;20028;-48
2021/08/06 01:46:10;;;;;;;8.68;7.88;;;;;;;19.30;68.07;99876.03;5009786;28;20025;-48
2021/08/06 01:48:38;;;;;;;11.23;8.65;;;;;;;19.30;67.99;99872.47;5014964;28;20029;-49
2021/08/06 01:51:05;;;;;;;9.02;8.00;;;;;;;19.28;68.03;99867.25;5017237;28;20029;-48
2021/08/06 01:56:54;;;;;;;8.85;7.93;;;;;;;19.28;67.91;99859.25;5015301;28;20041;-47
2021/08/06 01:59:19;;;;;;;8.55;7.68;;;;;;;19.29;68.09;99862.75;5014060;28;20052;-47
2021/08/06 02:02:35;;;;;;;8.98;8.20;;;;;;;19.28;68.24;99866.38;5014362;28;20050;-48
2021/08/06 02:05:00;;;;;;;9.05;8.23;;;;;;;19.28;68.22;99864.59;5013792;28;20732;-48
2021/08/06 02:07:25;;;;;;;9.88;8.88;;;;;;;19.25;68.13;99875.44;4995752;28;20030;-48
2021/08/06 02:09:53;;;;;;;9.02;8.13;;;;;;;19.25;68.15;99867.44;4996119;28;20030;-48
2021/08/06 02:12:18;;;;;;;8.75;7.93;;;;;;;19.26;67.95;99861.13;4997139;28;20026;-48
2021/08/06 02:14:44;;;;;;;8.98;8.02;;;;;;;19.27;67.99;99867.34;5012979;28;20029;-48
2021/08/06 02:17:09;;;;;;;8.80;8.00;;;;;;;19.26;68.06;99871.81;4995915;28;20588;-48
2021/08/06 02:19:37;;;;;;;8.65;7.85;;;;;;;19.26;68.05;99860.25;4997819;28;20041;-48
2021/08/06 02:22:05;;;;;;;7.97;7.22;;;;;;;19.25;68.02;99858.53;5013738;28;20021;-50
2021/08/06 02:24:32;;;;;;;8.07;7.28;;;;;;;19.23;67.99;99861.31;4995579;28;20053;-51
2021/08/06 02:26:58;;;;;;;9.27;7.28;;;;;;;19.25;68.05;99854.06;5005300;28;20026;-51
2021/08/06 02:29:23;;;;;;;8.50;7.63;;;;;;;19.21;68.27;99857.88;5005630;28;20034;-51
2021/08/06 02:31:50;;;;;;;8.02;7.32;;;;;;;19.24;68.25;99860.34;4998489;28;20032;-51
2021/08/06 02:34:15;;;;;;;7.80;7.10;;;;;;;19.22;68.14;99855.13;5015859;28;20029;-51
2021/08/06 02:36:42;;;;;;;8.77;7.95;;;;;;;19.23;68.09;99861.31;4995179;28;20512;-50
2021/08/06 02:39:29;;;;;;;8.77;7.97;;;;;;;19.23;68.27;99861.31;4995454;28;20076;-51
2021/08/06 02:42:01;;;;;;;9.05;8.18;;;;;;;19.20;68.19;99845.44;5030778;23;20049;-47
2021/08/06 02:44:26;;;;;;;8.68;7.88;;;;;;;19.22;68.16;99851.56;5029368;28;20566;-47
2021/08/06 02:46:52;;;;;;;8.98;7.75;;;;;;;19.19;68.15;99846.41;5027471;28;20110;-47
2021/08/06 02:49:17;;;;;;;8.90;8.02;;;;;;;19.23;67.97;99850.59;5033258;28;20021;-47
2021/08/06 02:51:43;;;;;;;8.60;7.78;;;;;;;19.20;68.28;99843.63;5035364;28;20059;-46
2021/08/06 02:54:08;;;;;;;8.98;8.07;;;;;;;19.22;68.07;99846.22;5030515;28;20052;-47
2021/08/06 02:56:34;;;;;;;9.32;8.43;;;;;;;19.21;68.06;99849.84;5024239;28;20029;-47
2021/08/06 02:58:59;;;;;;;8.13;7.30;;;;;;;19.19;68.02;99844.59;5030596;28;20014;-46
2021/08/06 03:01:25;;;;;;;8.05;7.20;;;;;;;19.21;67.99;99844.50;5032909;28;20037;-45
2021/08/06 03:03:50;;;;;;;8.48;7.68;;;;;;;19.16;68.06;99833.22;5030259;28;20446;-47
2021/08/06 03:06:16;;;;;;;8.57;7.78;;;;;;;19.21;67.93;99847.19;5029964;28;20073;-47
2021/08/06 03:08:41;;;;;;;8.93;8.13;;;;;;;19.21;67.98;99841.84;5031290;28;20029;-46
2021/08/06 03:11:07;;;;;;;7.82;7.13;;;;;;;19.20;67.94;99832.06;5028919;28;20026;-47
2021/08/06 03:13:33;;;;;;;7.82;7.13;;;;;;;19.19;67.85;99839.25;5031326;28;20033;-46
2021/08/06 03:15:58;;;;;;;8.20;7.40;;;;;;;19.17;68.18;99840.28;5034775;28;20511;-46
2021/08/06 03:18:24;;;;;;;8.02;7.22;;;;;;;19.18;68.12;99842.00;5031947;28;20044;-46
2021/08/06 03:20:49;;;;;;;8.10;7.30;;;;;;;19.18;68.03;99850.88;5034436;28;20032;-47
2021/08/06 03:23:14;;;;;;;8.02;7.22;;;;;;;19.18;68.01;99842.84;5031792;28;20025;-47
2021/08/06 03:25:40;;;;;;;8.20;7.40;;;;;;;19.19;68.08;99849.06;5031976;28;20080;-46
2021/08/06 03:28:05;;;;;;;9.27;8.38;;;;;;;19.19;67.96;99843.72;5031250;28;20392;-46
2021/08/06 03:30:30;;;;;;;7.85;7.05;;;;;;;19.17;68.08;99841.13;5033389;28;20029;-46
2021/08/06 03:32:56;;;;;;;8.25;7.28;;;;;;;19.16;67.99;99838.56;5030139;28;20022;-47
2021/08/06 03:35:21;;;;;;;8.18;7.32;;;;;;;19.16;67.98;99835.88;5029470;28;20033;-44
2021/08/06 03:37:46;;;;;;;7.25;6.55;;;;;;;19.16;67.92;99833.22;5035489;28;20491;-44
2021/08/06 03:40:13;;;;;;;7.97;7.28;;;;;;;19.16;67.98;99830.53;5036643;28;20028;-44
2021/08/06 03:42:39;;;;;;;8.13;7.32;;;;;;;19.14;68.05;99819.94;5032392;28;20116;-43
2021/08/06 03:45:06;;;;;;;7.75;6.95;;;;;;;19.14;68.00;99825.28;5034658;28;20492;-44
2021/08/06 03:47:32;;;;;;;7.40;6.70;;;;;;;19.15;68.04;99820.81;5031428;28;20033;-44
2021/08/06 03:49:57;;;;;;;7.65;6.95;;;;;;;19.14;67.89;99813.75;5015120;28;20025;-43
2021/08/06 03:52:22;;;;;;;8.00;7.20;;;;;;;19.14;68.09;99817.25;5033383;28;20025;-44
2021/08/06 03:54:48;;;;;;;7.30;6.60;;;;;;;19.14;68.01;99814.59;5032327;28;20036;-44
2021/08/06 03:57:13;;;;;;;7.57;6.90;;;;;;;19.14;67.93;99821.75;5034025;28;20017;-44
2021/08/06 03:59:38;;;;;;;6.95;6.30;;;;;;;19.13;67.95;99823.56;5035318;28;20465;-44
2021/08/06 04:02:04;;;;;;;7.57;6.95;;;;;;;19.11;67.94;99822.81;5040532;28;20048;-44
2021/08/06 04:04:29;;;;;;;6.90;6.20;;;;;;;19.13;67.77;99828.03;5035516;28;20038;-44
2021/08/06 04:06:54;;;;;;;6.75;6.05;;;;;;;19.12;68.06;99826.31;5035659;28;20037;-44
2021/08/06 04:09:20;;;;;;;7.22;6.53;;;;;;;19.10;67.89;99829.97;5031941;28;20047;-44
2021/08/06 04:11:45;;;;;;;7.72;7.03;;;;;;;19.10;68.12;99829.09;5036664;28;20611;-44
2021/08/06 04:14:10;;;;;;;7.68;6.97;;;;;;;19.09;68.03;99828.25;5037726;28;20025;-44
2021/08/06 04:16:36;;;;;;;8.07;7.18;;;;;;;19.07;68.07;99830.13;5037393;28;20028;-44
2021/08/06 04:19:01;;;;;;;6.55;5.93;;;;;;;19.09;68.09;99833.59;5032872;28;20056;-45
2021/08/06 04:21:27;;;;;;;6.85;6.25;;;;;;;19.08;67.91;99829.16;5038260;28;20026;-43
2021/08/06 04:23:52;;;;;;;7.05;6.22;;;;;;;19.08;68.08;99836.34;5032063;28;20488;-44
2021/08/06 04:26:17;;;;;;;6.72;6.07;;;;;;;19.05;67.93;99821.31;5032928;28;20021;-44
2021/08/06 04:28:43;;;;;;;7.00;6.30;;;;;;;19.06;67.90;99827.50;5039537;28;20029;-44
2021/08/06 04:31:08;;;;;;;7.57;6.88;;;;;;;19.05;67.94;99829.34;5034615;28;20026;-44
2021/08/06 04:33:33;;;;;;;6.80;6.20;;;;;;;19.05;67.84;99831.13;5031969;28;20029;-44
2021/08/06 04:35:59;;;;;;;7.75;6.97;;;;;;;19.05;67.86;99826.66;5032724;28;20052;-45
2021/08/06 04:38:25;;;;;;;6.95;6.28;;;;;;;19.03;68.02;99825.88;5033581;28;20029;-43
2021/08/06 04:40:56;;;;;;;8.80;6.53;;;;;;;19.03;68.23;99825.88;5036403;28;20040;-44
2021/08/06 04:43:21;;;;;;;7.43;6.78;;;;;;;19.03;67.93;99828.56;5018716;28;20083;-44
2021/08/06 04:45:49;;;;;;;8.07;7.28;;;;;;;19.03;67.90;99833.91;5038674;28;20025;-44
2021/08/06 04:48:19;;;;;;;7.32;6.55;;;;;;;19.02;67.96;99826.84;5031450;28;20120;-44
2021/08/06 04:50:44;;;;;;;7.57;6.88;;;;;;;19.04;67.78;99835.63;5033433;28;20030;-44
2021/08/06 04:53:09;;;;;;;7.55;6.85;;;;;;;19.02;67.92;99832.19;5035033;28;20024;-44
2021/08/06 04:55:35;;;;;;;7.60;6.70;;;;;;;19.00;67.92;99838.56;5032780;28;20029;-44
2021/08/06 04:58:00;;;;;;;8.75;7.25;;;;;;;19.00;68.10;99826.06;5031733;28;20460;-44
2021/08/06 05:00:25;;;;;;;7.57;6.07;;;;;;;19.00;67.92;99839.41;5041483;28;20064;-43
2021/08/06 05:02:53;;;;;;;8.57;7.35;;;;;;;19.00;67.81;99827.88;5034936;28;20049;-44
2021/08/06 05:05:18;;;;;;;7.93;7.18;;;;;;;18.99;68.03;99829.69;5031685;28;20047;-44
2021/08/06 05:07:54;;;;;;;7.97;7.18;;;;;;;18.98;67.98;99825.31;5035712;28;20485;-43
2021/08/06 05:10:22;;;;;;;7.50;6.80;;;;;;;19.01;67.86;99819.78;5031082;28;20037;-44
2021/08/06 05:12:48;;;;;;;7.95;7.15;;;;;;;18.99;67.99;99827.00;5032972;28;20488;-44
2021/08/06 05:15:13;;;;;;;7.60;6.90;;;;;;;19.00;67.79;99823.38;5039731;28;20029;-44
2021/08/06 05:17:38;;;;;;;8.43;7.45;;;;;;;18.99;67.96;99821.66;5015167;28;20100;-44
2021/08/06 05:20:06;;;;;;;8.18;7.07;;;;;;;18.98;68.15;99823.47;5037415;28;20022;-44
2021/08/06 05:22:32;;;;;;;7.32;6.63;;;;;;;18.97;68.09;99826.22;5014071;28;20028;-43
2021/08/06 05:24:59;;;;;;;7.65;6.30;;;;;;;18.95;68.06;99831.69;5040787;28;20024;-43
2021/08/06 05:27:25;;;;;;;8.30;7.50;;;;;;;18.96;67.87;99833.41;5034078;28;20017;-44
2021/08/06 05:29:51;;;;;;;8.13;7.32;;;;;;;18.98;67.84;99831.50;5033094;28;20107;-43
2021/08/06 05:39:00;;;;;;;8.50;7.50;;;;;;;18.94;67.77;99826.44;5033227;28;20512;-43
2021/08/06 05:41:25;;;;;;;9.98;8.05;;;;;;;18.93;68.30;99825.56;5034010;28;20041;-44
2021/08/06 05:43:50;;;;;;;8.10;7.18;;;;;;;18.93;68.00;99822.03;5037724;28;20018;-44
2021/08/06 05:46:16;;;;;;;7.97;7.18;;;;;;;18.95;67.89;99822.81;5033392;28;20029;-44
2021/08/06 05:48:41;;;;;;;10.13;7.95;;;;;;;18.93;67.96;99822.03;5032221;28;20105;-44
2021/08/06 05:51:06;;;;;;;8.13;7.03;;;;;;;18.92;67.96;99825.66;5037152;28;20033;-44
2021/08/06 05:53:32;;;;;;;8.85;7.95;;;;;;;18.91;68.12;99819.44;5040742;28;20044;-44
2021/08/06 05:55:58;;;;;;;8.60;7.70;;;;;;;18.93;67.98;99833.56;5029568;28;20053;-44
2021/08/06 05:58:24;;;;;;;9.13;8.07;;;;;;;18.90;68.09;99830.22;5034429;28;20029;-43
2021/08/06 06:00:49;;;;;;;9.55;8.30;;;;;;;18.93;67.94;99835.38;5035826;28;20021;-44
2021/08/06 06:03:15;;;;;;;8.80;7.93;;;;;;;18.92;68.11;99836.34;5033316;28;20033;-44
2021/08/06 06:05:40;;;;;;;9.07;7.97;;;;;;;18.92;67.89;99829.19;5037372;28;20033;-44
2021/08/06 06:08:05;;;;;;;8.60;7.63;;;;;;;18.91;68.07;99824.78;5033509;28;20377;-43
2021/08/06 06:10:31;;;;;;;8.95;7.47;;;;;;;18.92;67.74;99828.31;5034935;28;20029;-44
2021/08/06 06:12:56;;;;;;;9.10;7.45;;;;;;;18.88;67.91;99814.28;5034576;28;20491;-45
2021/08/06 06:15:22;;;;;;;9.50;8.13;;;;;;;18.91;67.88;99827.44;5034351;28;20060;-44
2021/08/06 06:17:50;;;;;;;9.13;8.15;;;;;;;18.91;67.91;99823.94;5029195;28;20060;-44
2021/08/06 06:20:16;;;;;;;10.68;8.65;;;;;;;18.88;67.95;99816.09;5037639;28;20522;-44
2021/08/06 06:22:42;;;;;;;9.05;7.82;;;;;;;18.83;68.07;99811.88;5020162;28;20036;-44
2021/08/06 06:25:09;;;;;;;9.38;8.38;;;;;;;18.89;67.98;99809.78;5022153;28;20025;-43
2021/08/06 06:28:03;;;;;;;10.10;7.60;;;;;;;18.88;67.91;99814.28;5031665;28;20582;-44
2021/08/06 06:30:30;;;;;;;9.75;8.13;;;;;;;18.88;67.82;99816.09;5030530;28;20048;-44
2021/08/06 06:32:56;;;;;;;9.43;8.18;;;;;;;18.85;68.18;99823.31;5033213;28;20020;-44
2021/08/06 06:35:22;;;;;;;9.43;8.43;;;;;;;18.86;68.25;99821.53;5022312;28;20477;-44
2021/08/06 06:37:54;;;;;;;9.60;8.60;;;;;;;18.83;67.97;99817.22;5020128;28;20095;-44
2021/08/06 06:40:21;;;;;;;10.43;9.32;;;;;;;18.86;67.99;99821.53;5038965;28;20079;-43
2021/08/06 06:42:47;;;;;;;11.05;8.32;;;;;;;18.84;68.10;99820.75;5017872;28;20124;-44
2021/08/06 06:45:13;;;;;;;9.93;8.27;;;;;;;18.83;67.91;99830.56;5033196;28;20387;-44
2021/08/06 06:47:41;;;;;;;10.27;8.45;;;;;;;18.83;68.19;99832.38;5032281;28;20039;-43
2021/08/06 06:50:10;;;;;;;10.02;8.68;;;;;;;18.84;68.10;99834.13;5029969;28;20112;-44
2021/08/06 06:52:36;;;;;;;9.10;8.05;;;;;;;18.89;67.95;99829.38;5039984;28;20025;-44
2021/08/06 06:55:02;;;;;;;9.98;9.02;;;;;;;18.86;68.10;99826.84;5033501;28;20028;-44
2021/08/06 06:57:31;;;;;;;10.23;9.10;;;;;;;18.82;68.05;99828.88;5035647;28;20022;-44
2021/08/06 06:59:57;;;;;;;9.82;8.82;;;;;;;18.82;68.12;99830.66;5033710;28;20465;-44
2021/08/06 07:02:23;;;;;;;12.70;9.50;;;;;;;18.82;68.05;99828.88;5030599;28;20416;-44
2021/08/06 07:04:48;;;;;;;10.60;9.15;;;;;;;18.84;68.16;99842.13;5035187;28;20032;-44
2021/08/06 07:07:13;;;;;;;10.88;8.73;;;;;;;18.78;68.16;99827.31;5015146;28;20084;-44
2021/08/06 07:09:39;;;;;;;10.55;8.70;;;;;;;18.82;68.43;99826.19;5033907;28;20033;-44
2021/08/06 07:12:04;;;;;;;10.35;8.88;;;;;;;18.80;68.41;99828.06;5031368;28;20022;-44
2021/08/06 07:14:30;;;;;;;10.95;8.93;;;;;;;18.78;68.38;99830.00;5029111;28;20083;-44
2021/08/06 07:16:58;;;;;;;10.63;9.18;;;;;;;18.78;68.53;99830.00;5034427;28;20021;-44
2021/08/06 07:19:23;;;;;;;10.73;9.32;;;;;;;18.76;68.55;99826.53;5028725;28;20100;-44
2021/08/06 07:21:48;;;;;;;10.48;8.85;;;;;;;18.80;68.35;99832.53;5034016;28;20056;-44
2021/08/06 07:24:15;;;;;;;13.18;9.77;;;;;;;18.76;68.58;99837.22;5033363;28;20041;-44
2021/08/06 07:26:40;;;;;;;11.32;9.70;;;;;;;18.81;68.44;99835.13;5036464;28;20035;-44
2021/08/06 07:29:06;;;;;;;11.52;9.40;;;;;;;18.79;68.43;99831.69;5038663;28;20021;-44
2021/08/06 07:31:32;;;;;;;13.52;10.68;;;;;;;18.79;68.37;99830.84;5037042;28;20029;-44
2021/08/06 07:33:57;;;;;;;13.93;10.20;;;;;;;18.80;68.47;99829.88;5033404;28;20092;-44
2021/08/06 07:36:22;;;;;;;14.13;11.02;;;;;;;18.81;68.17;99827.13;5032210;28;20029;-44
2021/08/06 07:38:48;;;;;;;13.45;10.77;;;;;;;18.79;68.40;99831.69;5030266;28;20025;-44
2021/08/06 07:41:13;;;;;;;13.75;11.38;;;;;;;18.79;68.71;99831.69;5029923;28;20055;-44
2021/08/06 07:43:47;;;;;;;12.73;11.40;;;;;;;18.77;68.75;99827.41;5030355;28;20029;-44
2021/08/06 07:46:13;;;;;;;11.27;9.63;;;;;;;18.77;68.42;99830.91;5030821;28;20033;-44
2021/08/06 07:48:38;;;;;;;15.20;11.00;;;;;;;18.77;68.52;99838.09;5035446;28;20065;-44
2021/08/06 07:51:03;;;;;;;13.02;11.10;;;;;;;18.75;68.40;99830.16;5031901;28;20128;-43
2021/08/06 07:53:29;;;;;;;16.08;12.90;;;;;;;18.75;68.65;99837.28;5030456;28;20029;-43
2021/08/06 07:55:57;;;;;;;14.45;11.75;;;;;;;18.76;68.59;99837.22;5033035;28;20021;-44
2021/08/06 07:58:22;;;;;;;16.60;13.13;;;;;;;18.75;68.50;99838.16;5035851;28;20030;-44
2021/08/06 08:00:48;;;;;;;14.15;11.02;;;;;;;18.75;68.58;99835.50;5033650;28;20087;-44
2021/08/06 08:03:22;;;;;;;18.60;15.75;;;;;;;18.71;68.84;99831.28;5031670;28;20025;-44
2021/08/06 08:05:47;;;;;;;14.68;11.18;;;;;;;18.74;68.55;99832.91;5035150;28;20021;-44
2021/08/06 08:08:16;;;;;;;18.55;13.57;;;;;;;18.74;68.87;99832.91;5038073;28;20507;-44
2021/08/06 08:10:41;;;;;;;17.95;14.27;;;;;;;18.74;68.92;99843.59;5029673;28;20036;-44
2021/08/06 08:13:06;;;;;;;16.38;13.80;;;;;;;18.75;68.72;99835.50;5029313;28;20481;-44
2021/08/06 08:15:32;;;;;;;15.27;13.15;;;;;;;18.72;68.90;99831.19;5029824;28;20041;-44
2021/08/06 08:17:57;;;;;;;17.50;13.93;;;;;;;18.72;68.77;99835.66;5030479;28;20025;-44
2021/08/06 08:20:22;;;;;;;17.17;14.55;;;;;;;18.70;68.97;99826.88;5029522;28;20193;-44
2021/08/06 08:22:48;;;;;;;15.85;12.75;;;;;;;18.70;68.77;99821.53;5031046;28;20026;-44
2021/08/06 08:25:13;;;;;;;17.38;12.93;;;;;;;18.70;68.93;99832.22;5029760;28;20559;-44
2021/08/06 08:27:39;;;;;;;16.02;14.18;;;;;;;18.69;68.97;99818.00;5012991;28;20042;-43
2021/08/06 08:30:08;;;;;;;14.50;13.00;;;;;;;18.71;68.78;99828.63;5029850;28;20025;-44
2021/08/06 08:32:38;;;;;;;19.58;14.60;;;;;;;18.71;68.62;99828.63;5029925;28;20108;-44
2021/08/06 08:35:04;;;;;;;17.10;13.00;;;;;;;18.74;68.92;99823.06;5032546;28;20476;-44
2021/08/06 08:37:30;;;;;;;16.30;12.65;;;;;;;18.71;69.06;99815.25;5011516;28;20021;-44
2021/08/06 08:39:55;;;;;;;17.52;14.00;;;;;;;18.71;68.85;99818.78;5029504;28;20397;-45
2021/08/06 08:42:21;;;;;;;16.95;14.30;;;;;;;18.69;69.24;99814.47;5030559;28;20089;-46
2021/08/06 08:44:47;;;;;;;16.67;13.18;;;;;;;18.72;69.25;99809.84;5020011;28;20075;-45
2021/08/06 08:47:23;;;;;;;16.33;14.45;;;;;;;18.70;69.09;99803.69;5034246;28;20032;-46
2021/08/06 08:49:51;;;;;;;20.90;15.40;;;;;;;18.70;69.03;99810.84;5016719;28;20092;-45
2021/08/06 08:52:17;;;;;;;18.25;14.55;;;;;;;18.71;69.03;99809.91;5033385;28;20025;-45
2021/08/06 08:54:42;;;;;;;17.02;14.27;;;;;;;18.73;69.23;99805.34;5035774;28;20170;-46
2021/08/06 08:57:08;;;;;;;18.30;13.55;;;;;;;18.79;69.00;99794.31;5038237;28;20044;-46
2021/08/06 08:59:36;;;;;;;18.00;14.20;;;;;;;18.75;69.06;99791.91;5033551;28;20009;-45
2021/08/06 09:02:02;;;;;;;16.70;13.27;;;;;;;18.79;68.97;99794.31;5018476;28;20103;-46
2021/08/06 09:04:29;;;;;;;16.42;13.30;;;;;;;18.81;68.93;99800.41;5032125;28;20480;-45
2021/08/06 09:06:55;;;;;;;15.43;13.23;;;;;;;18.80;68.96;99798.69;5034300;28;20025;-46
2021/08/06 09:09:22;;;;;;;17.13;14.90;;;;;;;18.78;68.81;99795.25;5033600;28;20024;-44
2021/08/06 09:12:13;;;;;;;16.75;13.30;;;;;;;18.78;68.93;99803.28;5034291;28;20025;-45
2021/08/06 09:14:41;;;;;;;17.05;14.32;;;;;;;18.76;69.02;99796.28;5037610;28;20120;-46
2021/08/06 09:17:10;;;;;;;15.13;12.77;;;;;;;18.75;68.87;99800.78;5032177;28;20032;-46
2021/08/06 09:19:44;;;;;;;17.02;13.85;;;;;;;18.76;69.08;99794.47;5036027;28;20483;-46
2021/08/06 09:22:20;;;;;;;14.98;13.25;;;;;;;18.81;68.85;99786.22;5036973;28;20060;-46
2021/08/06 09:25:12;;;;;;;15.95;13.35;;;;;;;18.80;68.82;99785.34;5036491;28;20026;-46
2021/08/06 09:28:01;;;;;;;15.48;13.43;;;;;;;18.79;68.81;99794.31;5035876;28;20033;-46
2021/08/06 09:30:38;;;;;;;15.23;12.50;;;;;;;18.80;68.73;99781.78;5030955;28;20109;-46
2021/08/06 09:33:05;;;;;;;14.82;13.20;;;;;;;18.82;68.73;99782.56;5035720;28;20036;-46
2021/08/06 09:35:32;;;;;;;15.88;13.05;;;;;;;18.84;68.74;99772.69;5031803;28;20388;-46
2021/08/06 09:37:58;;;;;;;13.32;11.93;;;;;;;18.85;68.74;99777.06;5046495;28;20032;-42
2021/08/06 09:40:30;;;;;;;14.40;12.57;;;;;;;18.80;68.80;99769.31;5034385;28;20022;-45
2021/08/06 09:43:04;;;;;;;14.20;12.48;;;;;;;18.85;68.81;99775.22;5035785;28;20029;-47
2021/08/06 09:45:40;;;;;;;14.93;12.82;;;;;;;18.87;68.83;99782.31;5035953;28;20343;-46
2021/08/06 09:48:09;;;;;;;14.43;12.93;;;;;;;18.87;68.77;99777.81;5032983;28;20388;-46
2021/08/06 09:50:41;;;;;;;13.93;12.35;;;;;;;18.87;68.87;99782.31;5032433;28;20038;-46
2021/08/06 09:53:07;;;;;;;13.70;12.30;;;;;;;18.84;68.86;99778.88;5032107;28;20030;-46
2021/08/06 09:55:36;;;;;;;13.07;11.77;;;;;;;18.85;68.93;99777.91;5036967;28;20772;-46
2021/08/06 09:58:06;;;;;;;13.57;11.68;;;;;;;18.86;68.67;99773.44;5034492;28;20017;-46
2021/08/06 10:00:32;;;;;;;14.77;12.10;;;;;;;18.86;68.98;99773.44;5036679;28;20052;-46
2021/08/06 10:03:00;;;;;;;13.30;11.93;;;;;;;18.87;68.86;99780.50;5034600;28;20023;-46
2021/08/06 10:05:27;;;;;;;12.48;11.32;;;;;;;18.89;68.91;99772.38;5036253;28;20014;-45
2021/08/06 10:07:55;;;;;;;14.10;12.60;;;;;;;18.88;68.89;99776.03;5035581;28;20511;-46
2021/08/06 10:10:30;;;;;;;12.55;11.25;;;;;;;18.88;69.14;99773.34;5036271;28;20060;-45
2021/08/06 10:12:57;;;;;;;13.15;11.77;;;;;;;18.87;69.13;99774.31;5038034;28;20024;-46
2021/08/06 10:15:23;;;;;;;13.07;11.63;;;;;;;18.87;69.06;99763.63;5036823;28;20025;-45
2021/08/06 10:17:49;;;;;;;12.40;11.10;;;;;;;18.88;68.84;99773.34;5033796;28;20092;-46
2021/08/06 10:20:16;;;;;;;12.45;10.60;;;;;;;18.88;68.96;99770.69;5023122;28;20101;-45
2021/08/06 10:22:42;;;;;;;11.18;10.07;;;;;;;18.88;68.88;99776.91;5032423;28;20033;-46
2021/08/06 10:25:12;;;;;;;12.50;11.25;;;;;;;18.91;69.10;99773.19;5032292;28;20072;-47
2021/08/06 10:27:41;;;;;;;11.52;10.30;;;;;;;18.89;68.79;99765.25;5035887;28;20037;-46
2021/08/06 10:30:23;;;;;;;10.45;9.52;;;;;;;18.90;68.85;99764.28;5042122;28;20013;-45
2021/08/06 10:33:27;;;;;;;11.32;9.88;;;;;;;18.91;68.77;99759.81;5031557;28;20033;-45
2021/08/06 10:35:55;;;;;;;10.98;9.52;;;;;;;18.91;68.76;99749.97;4954090;28;20581;-46
2021/08/06 10:38:32;;;;;;;10.07;9.07;;;;;;;18.92;68.88;99751.72;4959153;28;20027;-46
2021/08/06 10:40:58;;;;;;;10.77;9.68;;;;;;;18.92;68.87;99745.50;4998381;28;21117;-46
2021/08/06 10:43:34;;;;;;;9.02;8.20;;;;;;;18.94;68.93;99743.63;5037663;28;20115;-47
2021/08/06 10:45:59;;;;;;;9.57;8.68;;;;;;;18.94;69.01;99747.13;5037343;28;20032;-46
2021/08/06 10:48:31;;;;;;;9.75;8.88;;;;;;;18.94;68.97;99746.28;5032763;28;20030;-46
2021/08/06 10:51:14;;;;;;;8.77;8.05;;;;;;;18.93;69.00;99733.84;5033397;28;20520;-46
2021/08/06 10:53:55;;;;;;;8.13;7.43;;;;;;;18.94;68.96;99732.94;5040458;28;20527;-44
2021/08/06 10:56:25;;;;;;;9.70;8.73;;;;;;;18.95;68.97;99731.97;5029595;28;20037;-46
2021/08/06 10:58:53;;;;;;;10.18;8.32;;;;;;;18.95;68.70;99730.16;5032100;28;20065;-45
2021/08/06 11:01:24;;;;;;;8.73;7.93;;;;;;;18.99;68.84;99725.50;5036348;28;20018;-47
2021/08/06 11:03:53;;;;;;;;;;;;;;;18.97;68.79;99716.69;5035456;28;20033;-46
2021/08/06 11:06:41;;;;;;;7.63;6.93;;;;;;;18.97;68.69;99722.03;5030499;28;19913;-46
2021/08/06 11:09:11;;;;;;;8.63;7.82;;;;;;;18.97;68.89;99722.91;5033248;28;20500;-47
2021/08/06 11:11:44;;;;;;;7.57;6.85;;;;;;;19.00;68.70;99716.50;5021364;28;20037;-46
2021/08/06 11:14:11;;;;;;;6.97;6.38;;;;;;;19.01;68.44;99718.25;5033661;28;20032;-47
2021/08/06 11:16:57;;;;;;;9.02;8.13;;;;;;;19.00;68.77;99705.81;5035088;28;20393;-45
2021/08/06 11:19:27;;;;;;;8.18;7.38;;;;;;;19.01;68.63;99712.03;5020592;28;20036;-46
2021/08/06 11:21:52;;;;;;;8.10;7.33;;;;;;;19.04;68.98;99712.69;5034559;28;20040;-45
2021/08/06 11:24:19;;;;;;;8.55;7.68;;;;;;;19.04;68.65;99719.88;5029198;28;20481;-46
2021/08/06 11:26:48;;;;;;;7.85;7.15;;;;;;;19.03;68.88;99705.66;5038045;28;20029;-46
2021/08/06 11:29:14;;;;;;;7.63;6.93;;;;;;;19.05;68.59;99693.06;5031692;28;20021;-46
2021/08/06 11:31:39;;;;;;;9.68;7.88;;;;;;;19.07;68.73;99687.63;5035532;28;20500;-45
2021/08/06 11:34:05;;;;;;;7.75;7.05;;;;;;;19.08;68.52;99697.38;5031020;28;20117;-47
2021/08/06 11:36:30;;;;;;;7.82;7.13;;;;;;;19.11;68.52;99694.53;5037962;28;20477;-46
2021/08/06 11:39:02;;;;;;;8.13;7.03;;;;;;;19.10;68.62;99696.34;5033094;28;20113;-46
2021/08/06 11:41:30;;;;;;;7.55;6.82;;;;;;;19.10;68.55;99696.34;5033555;28;20034;-46
2021/08/06 11:43:56;;;;;;;7.78;7.10;;;;;;;19.12;68.83;99692.72;5040395;28;20023;-43